Aérodrome :
LOGIN :

S'inscrire | Disclaimer

   EN    FR    IT 

 










Légende :    VFR   VFR Marginal   IFR   IFR Intensif   IFR Très Intensif
Visi : 
Plafond : 
>= 8 km
>= 3000ft
5 à 8 km
1000 à 3000 ft
1500m à 5 km
500 à 1000 ft
800 à 1500m
200 à 500 ft
< 800m
< 200 ft
Symboles :   Orages  Brouillard  Fortes neiges  Fortes précipitations  Vent > 20 kt
SIGMETs :   Divers  Orages  Givrage  Turbulence  Onde Orograph.  Cendres Volcan.






- Altitude de l'aérodrome : 1545 ft
- Code IATA : RAK


GMMX - Menara Int.

DERNIER METAR :
  • 072130Z VRB02KT 9999 SCT026 13/10 Q1024 NOSIG

METARs EXPIRÉS :
  • 072100Z 10003KT 9999 SCT026 13/10 Q1024 NOSIG
  • 072030Z 09003KT 9999 SCT026 13/10 Q1024 NOSIG
  • 072000Z 09003KT 9999 SCT026 13/10 Q1024 NOSIG
  • 071930Z VRB02KT 9999 SCT026 14/11 Q1023 NOSIG
  • 071900Z 10003KT 9999 SCT026 14/11 Q1023 NOSIG

TAF TAF GMMX
Valide du 07 à 12h jusqu'au 08 à 18h UTC


071100Z 0712/0818 12006KT 8000 SCT023
TEMPO 0715/0722 32016KT BKN023



MET'MAP, la Météo Aéronautique d'un coup d'oeil ! - Copyright ORBIFLY Décembre 2007 - Disclaimer

ORBIFLY MET'MAP TEAM :

Programmation & Développement : Alexandra Zaïnal
Sur une idée originale de : Baudouin d'Aumeries
Assistance à la programmation : Marc-Olivier Méhu
Soutien technique & logistique : Manuel Goepfert

Contact : metmap@orbifly.com




SOURCES & CREDITS :

   NOAA